createdAt,value
2022-09-28T00:01:19.723Z,85.00
2022-09-28T00:03:47.883Z,84.90
2022-09-28T00:06:17.123Z,84.90
2022-09-28T00:08:44.053Z,85.00
2022-09-28T00:11:13.665Z,85.00
2022-09-28T00:13:43.893Z,85.00
2022-09-28T00:16:14.091Z,85.00
2022-09-28T00:18:41.076Z,84.80
2022-09-28T00:21:09.356Z,85.00
2022-09-28T00:23:59.844Z,84.90
2022-09-28T00:26:28.058Z,85.00
2022-09-28T00:28:55.956Z,85.00
2022-09-28T00:31:24.932Z,85.10
2022-09-28T00:33:52.554Z,85.20
2022-09-28T00:36:19.884Z,85.10
2022-09-28T00:38:46.571Z,85.10
2022-09-28T00:41:13.952Z,85.20
2022-09-28T00:43:40.743Z,85.10
2022-09-28T00:46:32.195Z,85.20
2022-09-28T00:49:07.391Z,85.20
2022-09-28T00:51:37.666Z,85.20
2022-09-28T00:54:07.258Z,85.20
2022-09-28T00:56:38.216Z,85.20
2022-09-28T00:59:05.119Z,85.20
2022-09-28T01:01:31.852Z,85.20
2022-09-28T01:03:59.544Z,85.20
2022-09-28T01:06:30.925Z,85.40
2022-09-28T01:09:02.951Z,85.40
2022-09-28T01:11:32.043Z,85.60
2022-09-28T01:14:00.718Z,85.50
2022-09-28T01:16:40.793Z,85.50
2022-09-28T01:19:42.432Z,85.50
2022-09-28T01:22:29.315Z,85.50
2022-09-28T01:25:06.479Z,85.60
2022-09-28T01:27:44.742Z,85.60
2022-09-28T01:30:18.699Z,85.60
2022-09-28T01:33:04.994Z,85.60
2022-09-28T01:35:36.447Z,85.50
2022-09-28T01:38:07.958Z,85.50
2022-09-28T01:40:36.356Z,85.50
2022-09-28T01:43:24.985Z,85.60
2022-09-28T01:45:56.506Z,85.60
2022-09-28T01:48:31.201Z,85.60
2022-09-28T01:51:01.613Z,85.60
2022-09-28T01:53:40.819Z,85.80
2022-09-28T01:56:18.195Z,85.80
2022-09-28T01:58:55.007Z,85.60
2022-09-28T02:01:29.229Z,85.50
2022-09-28T02:04:13.468Z,85.60
2022-09-28T02:06:57.699Z,85.70
2022-09-28T02:09:34.607Z,85.80
2022-09-28T02:12:14.889Z,85.80
2022-09-28T02:14:45.295Z,85.70
2022-09-28T02:17:12.838Z,85.90
2022-09-28T02:19:40.480Z,85.90
2022-09-28T02:22:31.468Z,85.80
2022-09-28T02:25:05.169Z,85.90
2022-09-28T02:27:54.103Z,85.90
2022-09-28T02:30:20.794Z,85.80
2022-09-28T02:32:50.458Z,85.60
2022-09-28T02:35:18.544Z,85.80
2022-09-28T02:37:46.247Z,85.80
2022-09-28T02:40:18.525Z,85.80
2022-09-28T02:43:10.386Z,85.90
2022-09-28T02:45:52.530Z,85.80
2022-09-28T02:48:45.741Z,85.80
2022-09-28T02:51:29.643Z,85.90
2022-09-28T02:54:30.280Z,85.80
2022-09-28T02:57:22.670Z,85.80
2022-09-28T03:00:12.487Z,85.80
2022-09-28T03:03:05.176Z,85.80
2022-09-28T03:06:07.413Z,85.80
2022-09-28T03:08:50.288Z,85.90
2022-09-28T03:11:23.236Z,85.90
2022-09-28T03:13:51.851Z,86.00
2022-09-28T03:16:20.932Z,86.00
2022-09-28T03:18:49.268Z,86.00
2022-09-28T03:21:16.472Z,86.10
2022-09-28T03:23:43.374Z,86.10
2022-09-28T03:26:14.503Z,86.80
2022-09-28T03:28:41.210Z,85.90
2022-09-28T03:31:11.929Z,86.00
2022-09-28T03:33:38.563Z,86.10
2022-09-28T03:36:05.915Z,86.00
2022-09-28T03:38:32.624Z,86.10
2022-09-28T03:41:00.498Z,86.00
2022-09-28T03:43:32.481Z,85.80
2022-09-28T03:46:02.632Z,85.80
2022-09-28T03:48:34.983Z,86.70
2022-09-28T03:51:07.042Z,85.80
2022-09-28T03:53:33.979Z,85.60
2022-09-28T03:56:12.074Z,85.60
2022-09-28T03:58:39.338Z,85.50
2022-09-28T04:01:12.950Z,85.50
2022-09-28T04:03:41.253Z,85.50
2022-09-28T04:06:08.247Z,85.50
2022-09-28T04:08:35.436Z,85.40
2022-09-28T04:11:02.628Z,85.40
2022-09-28T04:13:30.771Z,85.50
2022-09-28T04:16:00.917Z,86.40
2022-09-28T04:18:30.048Z,85.40
2022-09-28T04:21:22.076Z,85.30
2022-09-28T04:23:54.227Z,85.70
2022-09-28T04:26:23.797Z,85.70
2022-09-28T04:29:09.928Z,86.50
2022-09-28T04:31:42.310Z,85.70
2022-09-28T04:34:09.420Z,85.90
2022-09-28T04:36:37.058Z,85.80
2022-09-28T04:39:03.878Z,85.80
2022-09-28T04:41:31.641Z,85.90
2022-09-28T04:43:58.351Z,86.00
2022-09-28T04:46:26.216Z,86.00
2022-09-28T04:49:11.680Z,86.10
2022-09-28T04:51:49.279Z,86.30
2022-09-28T04:54:16.072Z,86.30
2022-09-28T04:56:42.652Z,86.30
2022-09-28T04:59:09.904Z,86.20
2022-09-28T05:01:37.664Z,86.20
2022-09-28T05:04:13.237Z,86.20
2022-09-28T05:07:15.201Z,86.20
2022-09-28T05:09:41.856Z,86.20
2022-09-28T05:12:09.674Z,86.20
2022-09-28T05:14:37.337Z,86.20
2022-09-28T05:17:05.055Z,86.30
2022-09-28T05:19:50.359Z,86.40
2022-09-28T05:22:17.052Z,86.40
2022-09-28T05:24:46.743Z,86.40
2022-09-28T05:27:14.210Z,86.50
2022-09-28T05:29:41.394Z,87.50
2022-09-28T05:32:26.691Z,86.60
2022-09-28T05:35:01.182Z,86.80
2022-09-28T05:37:38.213Z,86.80
2022-09-28T05:40:05.813Z,86.90
2022-09-28T05:42:32.553Z,87.00
2022-09-28T05:44:59.275Z,87.00
2022-09-28T05:47:27.299Z,87.00
2022-09-28T05:49:55.412Z,86.90
2022-09-28T05:52:22.338Z,86.80
2022-09-28T05:54:49.162Z,87.00
2022-09-28T05:57:15.897Z,87.00
2022-09-28T05:59:42.625Z,87.10
2022-09-28T06:02:10.661Z,87.10
2022-09-28T06:04:37.378Z,87.10
2022-09-28T06:07:04.048Z,87.10
2022-09-28T06:09:31.022Z,87.20
2022-09-28T06:12:16.057Z,87.00
2022-09-28T06:14:46.564Z,87.00
2022-09-28T06:17:13.624Z,87.00
2022-09-28T06:19:43.571Z,87.10
2022-09-28T06:22:35.379Z,87.10
2022-09-28T06:25:08.264Z,87.10
2022-09-28T06:27:34.950Z,87.00
2022-09-28T06:30:02.128Z,87.10
2022-09-28T06:32:29.703Z,87.00
2022-09-28T06:34:57.071Z,87.00
2022-09-28T06:37:26.072Z,86.90
2022-09-28T06:39:53.996Z,87.00
2022-09-28T06:42:20.852Z,86.90
2022-09-28T06:45:15.696Z,87.00
2022-09-28T06:47:44.309Z,87.00
2022-09-28T06:50:17.719Z,87.20
2022-09-28T06:53:09.498Z,87.20
2022-09-28T06:55:49.267Z,87.10
2022-09-28T06:58:21.089Z,87.10
2022-09-28T07:00:51.885Z,87.00
2022-09-28T07:03:22.300Z,87.00
2022-09-28T07:06:12.907Z,87.10
2022-09-28T07:09:26.035Z,87.10
2022-09-28T07:12:19.626Z,87.20
2022-09-28T07:14:56.065Z,87.10
2022-09-28T07:17:26.076Z,87.20
2022-09-28T07:20:00.478Z,87.20
2022-09-28T07:22:41.357Z,87.10
2022-09-28T07:25:09.646Z,87.20
2022-09-28T07:28:09.796Z,87.10
2022-09-28T07:30:57.430Z,87.20
2022-09-28T07:33:43.952Z,87.20
2022-09-28T07:36:20.770Z,87.10
2022-09-28T07:38:47.946Z,87.10
2022-09-28T07:41:16.947Z,87.10
2022-09-28T07:43:47.281Z,87.00
2022-09-28T07:46:14.060Z,87.00
2022-09-28T07:48:49.442Z,87.00
2022-09-28T07:51:48.484Z,87.10
2022-09-28T07:54:24.409Z,87.00
2022-09-28T07:57:29.780Z,87.00
2022-09-28T08:00:18.903Z,87.00
2022-09-28T08:02:48.320Z,87.00
2022-09-28T08:05:22.154Z,87.00
2022-09-28T08:07:48.747Z,87.00
2022-09-28T08:10:17.231Z,87.00
2022-09-28T08:12:54.845Z,86.80
2022-09-28T08:15:51.850Z,86.80
2022-09-28T08:18:36.729Z,86.70
2022-09-28T08:21:23.545Z,86.70
2022-09-28T08:23:51.010Z,86.70
2022-09-28T08:26:17.730Z,86.50
2022-09-28T08:28:46.683Z,86.50
2022-09-28T08:31:32.044Z,86.60
2022-09-28T08:34:22.432Z,86.50
2022-09-28T08:37:18.655Z,86.40
2022-09-28T08:40:04.418Z,86.20
2022-09-28T08:42:43.399Z,86.00
2022-09-28T08:45:48.540Z,85.80
2022-09-28T08:48:49.008Z,85.80
2022-09-28T08:52:11.517Z,85.80
2022-09-28T08:55:29.829Z,85.60
2022-09-28T08:58:00.680Z,85.30
2022-09-28T09:00:49.355Z,85.10
2022-09-28T09:03:29.685Z,84.70
2022-09-28T09:06:33.216Z,84.60
2022-09-28T09:09:22.167Z,84.30
2022-09-28T09:12:41.026Z,84.10
2022-09-28T09:15:14.289Z,83.90
2022-09-28T09:17:56.307Z,83.30
2022-09-28T09:20:56.973Z,83.40
2022-09-28T09:23:56.071Z,82.70
2022-09-28T09:26:40.996Z,81.90
2022-09-28T09:29:13.771Z,81.40
2022-09-28T09:32:17.712Z,81.10
2022-09-28T09:35:29.717Z,81.10
2022-09-28T09:38:43.588Z,81.80
2022-09-28T09:41:45.784Z,81.80
2022-09-28T09:44:44.755Z,81.00
2022-09-28T09:47:33.800Z,80.40
2022-09-28T09:50:39.403Z,79.90
2022-09-28T09:53:18.215Z,79.00
2022-09-28T09:55:54.761Z,78.70
2022-09-28T09:58:28.751Z,77.80
2022-09-28T10:01:21.043Z,77.30
2022-09-28T10:04:27.645Z,76.50
2022-09-28T10:07:06.365Z,76.10
2022-09-28T10:09:45.868Z,75.60
2022-09-28T10:12:39.211Z,73.80
2022-09-28T10:15:07.650Z,73.60
2022-09-28T10:17:48.813Z,74.00
2022-09-28T10:20:37.812Z,74.60
2022-09-28T10:23:27.920Z,75.30
2022-09-28T10:26:00.616Z,75.10
2022-09-28T10:28:39.947Z,74.90
2022-09-28T10:31:38.149Z,74.10
2022-09-28T10:34:14.004Z,73.00
2022-09-28T10:36:46.711Z,72.90
2022-09-28T10:39:24.339Z,73.80
2022-09-28T10:41:52.128Z,73.30
2022-09-28T10:44:23.162Z,72.70
2022-09-28T10:47:07.861Z,72.70
2022-09-28T10:49:47.035Z,71.50
2022-09-28T10:52:47.766Z,71.10
2022-09-28T10:55:58.461Z,71.40
2022-09-28T10:58:28.436Z,72.10
2022-09-28T11:01:09.734Z,71.80
2022-09-28T11:03:51.965Z,71.40
2022-09-28T11:06:31.066Z,70.60
2022-09-28T11:09:00.718Z,70.10
2022-09-28T11:11:29.551Z,69.50
2022-09-28T11:14:03.554Z,68.20
2022-09-28T11:16:36.536Z,67.90
2022-09-28T11:19:27.570Z,68.00
2022-09-28T11:21:54.422Z,67.40
2022-09-28T11:24:27.047Z,66.70
2022-09-28T11:27:00.091Z,66.60
2022-09-28T11:29:41.921Z,66.30
2022-09-28T11:32:43.609Z,67.00
2022-09-28T11:35:54.253Z,66.90
2022-09-28T11:38:47.696Z,66.40
2022-09-28T11:42:05.247Z,65.80
2022-09-28T11:44:39.119Z,64.80
2022-09-28T11:47:33.083Z,64.90
2022-09-28T11:50:27.040Z,64.70
2022-09-28T11:53:02.607Z,65.20
2022-09-28T11:55:54.382Z,65.30
2022-09-28T11:58:40.566Z,65.90
2022-09-28T12:01:37.539Z,66.10
2022-09-28T12:04:20.180Z,66.80
2022-09-28T12:06:51.906Z,66.90
2022-09-28T12:09:49.958Z,66.90
2022-09-28T12:12:38.537Z,66.60
2022-09-28T12:15:19.556Z,66.50
2022-09-28T12:17:55.926Z,67.30
2022-09-28T12:20:26.803Z,66.30
2022-09-28T12:22:59.532Z,65.70
2022-09-28T12:25:29.378Z,64.10
2022-09-28T12:28:05.496Z,63.50
2022-09-28T12:30:40.504Z,64.80
2022-09-28T12:33:12.070Z,67.30
2022-09-28T12:35:47.324Z,69.00
2022-09-28T12:39:08.519Z,70.70
2022-09-28T12:42:20.239Z,71.60
2022-09-28T12:44:52.894Z,72.10
2022-09-28T12:47:57.065Z,72.50
2022-09-28T12:50:39.598Z,72.90
2022-09-28T12:53:26.622Z,73.90
2022-09-28T12:56:04.560Z,74.70
2022-09-28T12:59:08.344Z,75.10
2022-09-28T13:01:56.298Z,75.50
2022-09-28T13:04:56.680Z,76.10
2022-09-28T13:07:53.981Z,76.30
2022-09-28T13:10:36.636Z,76.70
2022-09-28T13:13:25.646Z,76.60
2022-09-28T13:16:25.658Z,76.90
2022-09-28T13:19:16.765Z,77.00
2022-09-28T13:22:16.927Z,77.20
2022-09-28T13:24:45.101Z,77.30
2022-09-28T13:27:20.228Z,76.70
2022-09-28T13:29:49.771Z,76.80
2022-09-28T13:32:18.042Z,76.70
2022-09-28T13:34:49.847Z,76.80
2022-09-28T13:37:25.602Z,76.90
2022-09-28T13:39:57.274Z,76.40
2022-09-28T13:42:23.989Z,76.00
2022-09-28T13:45:04.101Z,75.40
2022-09-28T13:47:55.361Z,75.70
2022-09-28T13:50:55.877Z,75.60
2022-09-28T13:53:47.608Z,74.90
2022-09-28T13:56:40.702Z,73.50
2022-09-28T13:59:20.724Z,73.40
2022-09-28T14:02:02.887Z,73.00
2022-09-28T14:04:52.788Z,72.40
2022-09-28T14:10:20.858Z,72.80
2022-09-28T14:12:52.041Z,73.40
2022-09-28T14:15:36.994Z,74.00
2022-09-28T14:18:43.446Z,74.70
2022-09-28T14:21:22.539Z,74.60
2022-09-28T14:24:10.206Z,75.00
2022-09-28T14:26:58.431Z,74.90
2022-09-28T14:29:31.344Z,75.00
2022-09-28T14:31:58.974Z,75.20
2022-09-28T14:34:35.754Z,75.20
2022-09-28T14:37:24.147Z,76.20
2022-09-28T14:40:09.847Z,75.70
2022-09-28T14:42:36.665Z,75.90
2022-09-28T14:45:06.396Z,76.10
2022-09-28T14:48:11.779Z,76.20
2022-09-28T14:50:39.090Z,75.90
2022-09-28T14:53:16.191Z,76.00
2022-09-28T14:55:53.904Z,75.80
2022-09-28T14:58:27.533Z,76.20
2022-09-28T15:01:11.596Z,76.30
2022-09-28T15:03:41.534Z,76.60
2022-09-28T15:06:16.034Z,76.90
2022-09-28T15:08:42.895Z,77.00
2022-09-28T15:11:15.808Z,76.90
2022-09-28T15:13:42.771Z,77.20
2022-09-28T15:16:23.751Z,77.20
2022-09-28T15:19:19.352Z,77.40
2022-09-28T15:21:48.527Z,77.60
2022-09-28T15:24:32.427Z,77.80
2022-09-28T15:27:04.575Z,78.30
2022-09-28T15:29:33.320Z,78.30
2022-09-28T15:32:00.301Z,78.30
2022-09-28T15:34:54.602Z,78.50
2022-09-28T15:37:29.307Z,78.70
2022-09-28T15:39:58.243Z,78.80
2022-09-28T15:42:25.545Z,79.70
2022-09-28T15:45:07.680Z,78.60
2022-09-28T15:47:35.298Z,78.90
2022-09-28T15:50:09.123Z,78.80
2022-09-28T15:53:05.376Z,79.00
2022-09-28T15:55:35.611Z,79.10
2022-09-28T15:58:15.726Z,79.10
2022-09-28T16:00:44.569Z,79.10
2022-09-28T16:03:11.252Z,78.90
2022-09-28T16:05:42.097Z,79.10
2022-09-28T16:08:28.695Z,79.10
2022-09-28T16:11:19.821Z,79.10
2022-09-28T16:13:52.804Z,78.80
2022-09-28T16:16:31.216Z,78.90
2022-09-28T16:19:00.908Z,78.70
2022-09-28T16:21:46.846Z,78.60
2022-09-28T16:24:52.752Z,78.50
2022-09-28T16:27:28.918Z,78.20
2022-09-28T16:30:14.866Z,78.30
2022-09-28T16:33:01.749Z,78.20
2022-09-28T16:35:31.535Z,77.90
2022-09-28T16:38:15.284Z,78.00
2022-09-28T16:40:46.217Z,78.00
2022-09-28T16:43:26.893Z,78.00
2022-09-28T16:46:04.338Z,77.90
2022-09-28T16:48:33.584Z,78.10
2022-09-28T16:51:00.412Z,78.40
2022-09-28T16:53:45.783Z,78.50
2022-09-28T16:56:13.251Z,78.80
2022-09-28T16:58:39.919Z,78.90
2022-09-28T17:01:09.553Z,79.20
2022-09-28T17:03:36.429Z,79.10
2022-09-28T17:06:06.010Z,79.60
2022-09-28T17:08:33.662Z,79.70
2022-09-28T17:11:18.083Z,79.90
2022-09-28T17:13:49.382Z,80.20
2022-09-28T17:16:18.112Z,80.50
2022-09-28T17:18:45.933Z,80.40
2022-09-28T17:21:20.500Z,80.60
2022-09-28T17:23:48.957Z,80.70
2022-09-28T17:26:34.335Z,81.70
2022-09-28T17:29:06.723Z,81.10
2022-09-28T17:31:33.508Z,81.30
2022-09-28T17:34:00.236Z,81.40
2022-09-28T17:36:26.926Z,81.50
2022-09-28T17:38:53.546Z,82.50
2022-09-28T17:41:21.160Z,81.50
2022-09-28T17:43:48.708Z,81.80
2022-09-28T17:46:30.565Z,81.90
2022-09-28T17:48:59.703Z,82.10
2022-09-28T17:51:28.748Z,82.10
2022-09-28T17:53:56.876Z,82.20
2022-09-28T17:56:27.540Z,82.10
2022-09-28T17:59:01.093Z,82.20
2022-09-28T18:01:33.750Z,82.10
2022-09-28T18:04:02.242Z,82.10
2022-09-28T18:06:36.331Z,82.10
2022-09-28T18:09:05.898Z,82.20
2022-09-28T18:11:33.617Z,82.30
2022-09-28T18:14:00.563Z,82.40
2022-09-28T18:16:28.546Z,82.50
2022-09-28T18:18:55.428Z,82.60
2022-09-28T18:21:22.163Z,82.70
2022-09-28T18:23:48.749Z,82.60
2022-09-28T18:26:16.672Z,82.50
2022-09-28T18:28:43.381Z,82.70
2022-09-28T18:31:11.839Z,82.80
2022-09-28T18:33:51.392Z,82.70
2022-09-28T18:36:18.100Z,82.70
2022-09-28T18:38:44.680Z,82.70
2022-09-28T18:41:16.560Z,82.60
2022-09-28T18:43:48.982Z,82.70
2022-09-28T18:46:18.034Z,83.00
2022-09-28T18:48:44.920Z,82.90
2022-09-28T18:51:12.605Z,83.00
2022-09-28T18:53:40.123Z,82.90
2022-09-28T18:56:11.863Z,82.90
2022-09-28T18:58:39.702Z,83.10
2022-09-28T19:01:28.359Z,83.50
2022-09-28T19:03:54.916Z,83.70
2022-09-28T19:06:21.563Z,83.60
2022-09-28T19:08:53.267Z,83.60
2022-09-28T19:11:19.959Z,83.70
2022-09-28T19:13:46.534Z,83.60
2022-09-28T19:16:17.469Z,83.40
2022-09-28T19:18:44.381Z,83.30
2022-09-28T19:21:13.393Z,83.50
2022-09-28T19:23:44.691Z,83.50
2022-09-28T19:26:16.607Z,83.50
2022-09-28T19:28:43.627Z,83.50
2022-09-28T19:31:11.521Z,83.50
2022-09-28T19:33:39.603Z,83.50
2022-09-28T19:36:15.238Z,83.30
2022-09-28T19:38:42.185Z,83.50
2022-09-28T19:41:11.106Z,83.50
2022-09-28T19:43:38.223Z,83.50
2022-09-28T19:46:06.514Z,83.30
2022-09-28T19:48:34.237Z,83.40
2022-09-28T19:51:03.919Z,83.40
2022-09-28T19:53:38.944Z,83.50
2022-09-28T19:56:05.998Z,83.80
2022-09-28T19:58:35.489Z,83.90
2022-09-28T20:01:08.342Z,84.10
2022-09-28T20:03:35.311Z,84.10
2022-09-28T20:06:02.336Z,83.90
2022-09-28T20:08:32.265Z,83.80
2022-09-28T20:10:59.993Z,83.80
2022-09-28T20:13:34.821Z,83.70
2022-09-28T20:16:12.385Z,83.70
2022-09-28T20:18:43.495Z,83.70
2022-09-28T20:21:18.179Z,83.60
2022-09-28T20:23:46.297Z,83.50
2022-09-28T20:26:14.080Z,83.50
2022-09-28T20:28:41.067Z,83.50
2022-09-28T20:31:14.465Z,83.50
2022-09-28T20:33:42.590Z,83.60
2022-09-28T20:36:12.291Z,83.60
2022-09-28T20:38:40.474Z,83.60
2022-09-28T20:41:08.752Z,83.70
2022-09-28T20:43:35.683Z,83.80
2022-09-28T20:46:04.229Z,83.80
2022-09-28T20:48:31.600Z,83.80
2022-09-28T20:51:09.741Z,83.90
2022-09-28T20:53:37.538Z,83.80
2022-09-28T20:56:17.556Z,83.80
2022-09-28T20:58:44.389Z,83.90
2022-09-28T21:01:19.929Z,83.90
2022-09-28T21:04:00.820Z,83.80
2022-09-28T21:06:29.693Z,83.80
2022-09-28T21:08:57.769Z,83.90
2022-09-28T21:11:26.728Z,83.70
2022-09-28T21:13:58.489Z,83.70
2022-09-28T21:16:26.836Z,83.90
2022-09-28T21:18:53.693Z,84.70
2022-09-28T21:21:21.348Z,83.90
2022-09-28T21:23:48.175Z,83.90
2022-09-28T21:26:24.605Z,84.70
2022-09-28T21:28:53.433Z,83.80
2022-09-28T21:31:24.767Z,83.80
2022-09-28T21:33:54.351Z,83.90
2022-09-28T21:36:21.035Z,83.80
2022-09-28T21:38:47.687Z,83.80
2022-09-28T21:41:14.424Z,83.70
2022-09-28T21:43:41.054Z,83.70
2022-09-28T21:46:07.847Z,84.80
2022-09-28T21:48:34.553Z,83.80
2022-09-28T21:51:13.886Z,83.80
2022-09-28T21:53:40.596Z,83.70
2022-09-28T21:56:09.482Z,83.70
2022-09-28T21:58:36.508Z,83.60
2022-09-28T22:01:08.987Z,83.70
2022-09-28T22:03:36.524Z,83.70
2022-09-28T22:06:04.328Z,84.00
2022-09-28T22:08:31.261Z,84.10
2022-09-28T22:11:02.882Z,84.10
2022-09-28T22:13:31.041Z,84.10
2022-09-28T22:15:58.752Z,84.10
2022-09-28T22:18:27.531Z,84.00
2022-09-28T22:21:09.861Z,84.60
2022-09-28T22:23:37.650Z,84.10
2022-09-28T22:26:07.623Z,84.10
2022-09-28T22:28:34.813Z,84.00
2022-09-28T22:31:01.887Z,83.90
2022-09-28T22:33:28.849Z,84.00
2022-09-28T22:35:55.765Z,84.10
2022-09-28T22:38:24.324Z,84.10
2022-09-28T22:40:55.988Z,84.10
2022-09-28T22:43:23.646Z,84.10
2022-09-28T22:45:51.322Z,84.20
2022-09-28T22:48:18.500Z,84.30
2022-09-28T22:50:50.161Z,84.20
2022-09-28T22:53:17.071Z,84.30
2022-09-28T22:55:43.983Z,84.30
2022-09-28T22:58:10.835Z,84.10
2022-09-28T23:00:37.804Z,84.10
2022-09-28T23:03:04.798Z,84.00
2022-09-28T23:05:31.521Z,84.00
2022-09-28T23:07:58.319Z,84.00
2022-09-28T23:10:24.914Z,84.00
2022-09-28T23:12:54.003Z,83.90
2022-09-28T23:15:21.586Z,83.90
2022-09-28T23:17:54.548Z,83.90
2022-09-28T23:20:21.972Z,83.80
2022-09-28T23:22:49.189Z,83.80
2022-09-28T23:25:17.623Z,83.90
2022-09-28T23:27:48.702Z,83.90
2022-09-28T23:30:17.204Z,84.00
2022-09-28T23:32:44.470Z,83.90
2022-09-28T23:35:11.739Z,83.90
2022-09-28T23:37:39.011Z,83.90
2022-09-28T23:40:06.815Z,84.00
2022-09-28T23:42:35.480Z,84.10
2022-09-28T23:45:02.128Z,84.00
2022-09-28T23:47:28.817Z,84.10
2022-09-28T23:49:55.460Z,84.30
2022-09-28T23:52:22.118Z,84.50
2022-09-28T23:54:48.794Z,84.40
2022-09-28T23:57:15.699Z,84.30
2022-09-28T23:59:42.264Z,84.20
